Terminal Aerodrome Forecast
Issued by NWS

Home | Current Version | Previous Version | Text Only | Print | Product List | Glossary Off
Versions: 1 2 3 4 5 6 7 8 9 10 11 12 13 14 15 16 17 18 19 20 21 22 23 24 25 26 27 28 29 30 31 32

000
FTUS43 KLOT 300540
TAFORD
TAF
KORD 300540Z 3006/3112 02006KT 3SM BR OVC005
     FM300700 02004KT 2SM BR OVC004
     FM301000 VRB03KT 1SM BR OVC003
     FM301400 VRB03KT 4SM HZ SCT005 BKN009
     FM301600 VRB03KT P6SM SCT010 BKN025
     FM302000 09006KT P6SM SCT025
     FM310300 00000KT 4SM BR SKC=

USA.gov is the U.S. government's official web portal to all federal, state and local government web resources and services.